Time;durP1;ratioP1;P1;durP2;ratioP2;P2;SDS_P1;SDS_P2;PMS_P1;PMS_P2;Temp;Humidity;BMP_temperature;BMP_pressure;BME280_temperature;BME280_humidity;BME280_pressure;Samples;Min_cycle;Max_cycle;Signal;HPM_P1;HPM_P2
2022/02/24 00:02:50;;;;;;;4.77;3.40;;;;;;;;;;10518598;28;20452;-68
2022/02/24 00:07:51;;;;;;;7.70;3.50;;;;;;;;;;10537500;28;20433;-68
2022/02/24 00:12:52;;;;;;;7.68;4.05;;;;;;;;;;10536966;28;20035;-67
2022/02/24 00:17:52;;;;;;;9.53;3.60;;;;;;;;;;10536875;28;20031;-65
2022/02/24 00:22:52;;;;;;;7.18;3.78;;;;;;;;;;10535382;28;20027;-65
2022/02/24 00:27:53;;;;;;;13.40;3.80;;;;;;;;;;10536253;28;20024;-64
2022/02/24 00:32:53;;;;;;;6.22;3.80;;;;;;;;;;10536209;28;20024;-64
2022/02/24 00:37:54;;;;;;;5.87;3.43;;;;;;;;;;10536075;28;20471;-64
2022/02/24 00:42:54;;;;;;;7.83;3.53;;;;;;;;;;10536400;28;20437;-64
2022/02/24 00:47:54;;;;;;;7.78;3.65;;;;;;;;;;10529437;28;20122;-65
2022/02/24 00:52:56;;;;;;;5.60;3.67;;;;;;;;;;10535576;28;20085;-65
2022/02/24 00:57:56;;;;;;;5.65;3.40;;;;;;;;;;10534658;28;20457;-65
2022/02/24 01:02:57;;;;;;;6.70;3.60;;;;;;;;;;10535075;28;20031;-69
2022/02/24 01:07:57;;;;;;;4.03;3.27;;;;;;;;;;10534725;28;20453;-65
2022/02/24 01:12:58;;;;;;;7.00;3.45;;;;;;;;;;10534618;28;20452;-65
2022/02/24 01:17:58;;;;;;;4.50;3.63;;;;;;;;;;10533822;28;20031;-64
2022/02/24 01:22:59;;;;;;;5.40;3.65;;;;;;;;;;10533742;28;20536;-65
2022/02/24 01:28:00;;;;;;;6.95;3.45;;;;;;;;;;10533764;28;20020;-66
2022/02/24 01:33:00;;;;;;;5.60;3.22;;;;;;;;;;10533830;28;20028;-66
2022/02/24 01:38:00;;;;;;;5.30;3.20;;;;;;;;;;10533847;28;20028;-66
2022/02/24 01:43:01;;;;;;;7.37;3.10;;;;;;;;;;10533494;28;20111;-66
2022/02/24 01:48:02;;;;;;;6.00;3.40;;;;;;;;;;10529040;28;20991;-69
2022/02/24 01:53:02;;;;;;;4.75;3.20;;;;;;;;;;10533407;28;20531;-67
2022/02/24 01:58:03;;;;;;;5.82;3.30;;;;;;;;;;10529843;28;20488;-66
2022/02/24 02:03:04;;;;;;;4.45;3.17;;;;;;;;;;10532934;28;20031;-66
2022/02/24 02:08:05;;;;;;;6.78;3.40;;;;;;;;;;10532437;28;20364;-65
2022/02/24 02:13:05;;;;;;;4.75;3.13;;;;;;;;;;10533194;28;20102;-73
2022/02/24 02:18:06;;;;;;;3.57;2.67;;;;;;;;;;10532379;28;20202;-68
2022/02/24 02:23:06;;;;;;;7.53;3.80;;;;;;;;;;10532748;28;20560;-66
2022/02/24 02:28:07;;;;;;;5.57;3.25;;;;;;;;;;10532313;28;20453;-64
2022/02/24 02:33:07;;;;;;;4.10;3.23;;;;;;;;;;10532291;28;20105;-64
2022/02/24 02:38:08;;;;;;;5.22;3.08;;;;;;;;;;10532013;28;20629;-64
2022/02/24 02:43:08;;;;;;;4.90;3.55;;;;;;;;;;10530650;28;20384;-64
2022/02/24 02:48:09;;;;;;;6.82;3.25;;;;;;;;;;10532435;28;20055;-65
2022/02/24 02:53:10;;;;;;;4.47;2.88;;;;;;;;;;10531987;28;20115;-65
2022/02/24 02:58:10;;;;;;;4.65;3.38;;;;;;;;;;10525756;28;20040;-66
2022/02/24 03:03:10;;;;;;;3.97;2.97;;;;;;;;;;10531506;28;20028;-65
2022/02/24 03:08:11;;;;;;;6.37;3.60;;;;;;;;;;10531902;28;20444;-69
2022/02/24 03:13:12;;;;;;;4.57;3.47;;;;;;;;;;10531450;28;20425;-65
2022/02/24 03:18:12;;;;;;;4.80;3.30;;;;;;;;;;10531786;28;20016;-65
2022/02/24 03:23:13;;;;;;;5.85;3.25;;;;;;;;;;10538767;28;20433;-66
2022/02/24 03:28:13;;;;;;;6.00;3.10;;;;;;;;;;10539179;28;20024;-66
2022/02/24 03:33:16;;;;;;;5.72;2.95;;;;;;;;;;10539293;28;20024;-66
2022/02/24 03:38:16;;;;;;;5.13;3.22;;;;;;;;;;10538582;28;20475;-66
2022/02/24 03:43:17;;;;;;;3.67;3.13;;;;;;;;;;10538211;28;20032;-66
2022/02/24 03:48:17;;;;;;;5.23;3.40;;;;;;;;;;10538056;28;20437;-66
2022/02/24 03:53:17;;;;;;;4.53;3.47;;;;;;;;;;10537883;28;20959;-66
2022/02/24 03:58:18;;;;;;;6.13;3.50;;;;;;;;;;10534163;28;20491;-66
2022/02/24 04:03:18;;;;;;;3.83;3.00;;;;;;;;;;10534444;28;20491;-65
2022/02/24 04:08:18;;;;;;;4.17;2.80;;;;;;;;;;10537211;28;20027;-66
2022/02/24 04:13:19;;;;;;;4.55;3.08;;;;;;;;;;10537015;28;20852;-66
2022/02/24 04:18:19;;;;;;;4.30;3.33;;;;;;;;;;10536635;28;20024;-66
2022/02/24 04:23:20;;;;;;;5.77;3.23;;;;;;;;;;10537094;28;20020;-65
2022/02/24 04:28:20;;;;;;;4.00;2.97;;;;;;;;;;10536475;28;20020;-66
2022/02/24 04:33:20;;;;;;;4.97;2.87;;;;;;;;;;10535488;28;20058;-66
2022/02/24 04:38:21;;;;;;;5.43;3.13;;;;;;;;;;10536480;28;20453;-67
2022/02/24 04:43:21;;;;;;;5.33;3.17;;;;;;;;;;10535875;28;20082;-66
2022/02/24 04:48:23;;;;;;;4.43;3.00;;;;;;;;;;10536330;28;20032;-66
2022/02/24 04:53:23;;;;;;;4.78;3.22;;;;;;;;;;10536087;28;20240;-66
2022/02/24 04:58:23;;;;;;;3.43;2.80;;;;;;;;;;10535373;28;20455;-64
2022/02/24 05:03:24;;;;;;;3.83;3.00;;;;;;;;;;10532425;28;20459;-66
2022/02/24 05:08:24;;;;;;;3.80;2.80;;;;;;;;;;10531805;28;20524;-66
2022/02/24 05:13:24;;;;;;;4.40;3.17;;;;;;;;;;10535217;28;20838;-68
2022/02/24 05:18:25;;;;;;;4.80;2.93;;;;;;;;;;10534996;28;20028;-69
2022/02/24 05:23:25;;;;;;;4.10;3.30;;;;;;;;;;10534315;28;20141;-65
2022/02/24 05:28:25;;;;;;;4.00;2.93;;;;;;;;;;10534155;28;20111;-65
2022/02/24 05:33:27;;;;;;;5.70;3.10;;;;;;;;;;10534204;28;20399;-70
2022/02/24 05:38:28;;;;;;;3.33;2.97;;;;;;;;;;10534188;28;20046;-65
2022/02/24 05:43:29;;;;;;;3.88;3.05;;;;;;;;;;10534124;28;20064;-64
2022/02/24 05:48:30;;;;;;;3.88;3.15;;;;;;;;;;10533323;28;20501;-64
2022/02/24 06:05:30;;;;;;;3.13;2.70;;;;;;;;;;10516784;28;20051;-64
2022/02/24 06:10:33;;;;;;;4.23;2.97;;;;;;;;;;10526206;28;20222;-64
2022/02/24 06:15:33;;;;;;;6.07;3.50;;;;;;;;;;10532469;28;20464;-64
2022/02/24 06:20:33;;;;;;;3.78;3.20;;;;;;;;;;10532974;28;20032;-64
2022/02/24 06:25:34;;;;;;;4.00;2.87;;;;;;;;;;10531896;28;20020;-64
2022/02/24 06:30:34;;;;;;;3.10;2.80;;;;;;;;;;10532260;28;20967;-64
2022/02/24 06:35:35;;;;;;;3.95;2.80;;;;;;;;;;10532660;28;20456;-65
2022/02/24 06:40:35;;;;;;;5.43;3.40;;;;;;;;;;10532036;28;20023;-61
2022/02/24 06:45:35;;;;;;;17.00;4.13;;;;;;;;;;10531415;28;20548;-60
2022/02/24 06:50:36;;;;;;;12.70;4.47;;;;;;;;;;10531921;28;20028;-61
2022/02/24 06:55:36;;;;;;;7.07;4.70;;;;;;;;;;10536493;28;20109;-64
2022/02/24 07:00:37;;;;;;;10.20;4.68;;;;;;;;;;10539785;28;20039;-73
2022/02/24 07:05:37;;;;;;;15.15;5.60;;;;;;;;;;10538841;28;20097;-60
2022/02/24 07:10:37;;;;;;;15.97;6.47;;;;;;;;;;10535871;28;20123;-64
2022/02/24 07:15:38;;;;;;;78.30;10.00;;;;;;;;;;10535610;28;20440;-58
2022/02/24 07:20:38;;;;;;;41.07;8.13;;;;;;;;;;10538041;28;20158;-62
2022/02/24 07:25:39;;;;;;;29.07;8.13;;;;;;;;;;10538104;28;20978;-61
2022/02/24 07:30:40;;;;;;;35.72;7.95;;;;;;;;;;10538954;28;20085;-61
2022/02/24 07:35:40;;;;;;;33.97;8.77;;;;;;;;;;10539444;28;20035;-61
2022/02/24 07:40:41;;;;;;;26.63;8.00;;;;;;;;;;10539578;28;20028;-61
2022/02/24 07:45:41;;;;;;;22.20;7.13;;;;;;;;;;10538804;28;20036;-61
2022/02/24 07:50:42;;;;;;;25.88;8.40;;;;;;;;;;10539464;28;20024;-61
2022/02/24 07:55:42;;;;;;;23.33;7.32;;;;;;;;;;10537762;28;20356;-61
2022/02/24 08:00:45;;;;;;;25.65;7.32;;;;;;;;;;10537990;28;20031;-60
2022/02/24 08:05:45;;;;;;;21.20;7.88;;;;;;;;;;10535528;28;20052;-60
2022/02/24 08:10:47;;;;;;;15.57;7.10;;;;;;;;;;10537975;28;20032;-60
2022/02/24 08:15:48;;;;;;;16.42;7.45;;;;;;;;;;10534345;28;20476;-60
2022/02/24 08:20:48;;;;;;;18.90;7.30;;;;;;;;;;10534736;28;20052;-65
2022/02/24 08:25:49;;;;;;;13.57;6.93;;;;;;;;;;10537375;28;20464;-60
2022/02/24 08:30:49;;;;;;;17.10;8.00;;;;;;;;;;10537457;28;20364;-60
2022/02/24 08:35:49;;;;;;;23.33;6.93;;;;;;;;;;10535782;28;20504;-62
2022/02/24 08:40:50;;;;;;;13.57;6.85;;;;;;;;;;10537475;28;20039;-64
2022/02/24 08:45:50;;;;;;;18.70;6.60;;;;;;;;;;10537635;28;20081;-60
2022/02/24 08:50:51;;;;;;;15.33;7.47;;;;;;;;;;10536474;28;20448;-60
2022/02/24 08:55:51;;;;;;;13.00;6.57;;;;;;;;;;10535881;28;20111;-61
2022/02/24 09:00:51;;;;;;;12.50;6.93;;;;;;;;;;10536141;28;20146;-69
2022/02/24 09:05:52;;;;;;;12.90;6.90;;;;;;;;;;10533851;28;20056;-61
2022/02/24 09:10:52;;;;;;;12.37;6.67;;;;;;;;;;10535584;28;20437;-60
2022/02/24 09:15:52;;;;;;;12.75;7.00;;;;;;;;;;10535755;28;20024;-67
2022/02/24 09:20:53;;;;;;;14.13;6.30;;;;;;;;;;10531009;28;20392;-60
2022/02/24 09:25:53;;;;;;;18.37;7.00;;;;;;;;;;10534262;28;20543;-61
2022/02/24 09:30:54;;;;;;;12.90;6.30;;;;;;;;;;10531141;28;20028;-60
2022/02/24 09:35:54;;;;;;;10.68;6.05;;;;;;;;;;10534749;28;20527;-60
2022/02/24 09:40:56;;;;;;;12.00;6.38;;;;;;;;;;10535624;28;20028;-60
2022/02/24 09:45:58;;;;;;;12.40;6.68;;;;;;;;;;10534531;28;20030;-66
2022/02/24 09:51:01;;;;;;;11.82;6.50;;;;;;;;;;10533497;28;20269;-60
2022/02/24 09:56:02;;;;;;;12.27;6.10;;;;;;;;;;10533704;28;20016;-60
2022/02/24 10:01:02;;;;;;;10.63;6.35;;;;;;;;;;10534793;28;20406;-60
2022/02/24 10:06:04;;;;;;;10.43;5.97;;;;;;;;;;10533277;28;20044;-60
2022/02/24 10:11:17;;;;;;;10.85;6.38;;;;;;;;;;10534389;28;20028;-60
2022/02/24 10:16:17;;;;;;;8.95;6.07;;;;;;;;;;10533987;28;20077;-60
2022/02/24 10:21:18;;;;;;;15.00;6.70;;;;;;;;;;10533217;28;20463;-60
2022/02/24 10:26:18;;;;;;;13.68;6.13;;;;;;;;;;10533931;28;20507;-61
2022/02/24 10:31:23;;;;;;;10.73;6.13;;;;;;;;;;10529296;28;20052;-60
2022/02/24 10:36:25;;;;;;;8.38;5.70;;;;;;;;;;10533709;28;20089;-60
2022/02/24 10:41:34;;;;;;;7.95;5.18;;;;;;;;;;10530406;28;20058;-60
2022/02/24 10:46:34;;;;;;;11.63;5.82;;;;;;;;;;10532992;28;20035;-60
2022/02/24 10:51:35;;;;;;;10.80;5.77;;;;;;;;;;10533022;28;20488;-64
2022/02/24 10:56:39;;;;;;;12.77;6.00;;;;;;;;;;10532290;28;20475;-60
2022/02/24 11:01:40;;;;;;;11.38;5.47;;;;;;;;;;10531090;28;20452;-60
2022/02/24 11:06:40;;;;;;;10.52;5.88;;;;;;;;;;10530158;28;20068;-60
2022/02/24 11:11:41;;;;;;;9.27;5.65;;;;;;;;;;10532166;28;20047;-60
2022/02/24 11:16:41;;;;;;;7.63;5.30;;;;;;;;;;10531602;28;20471;-60
2022/02/24 11:21:43;;;;;;;7.27;5.27;;;;;;;;;;10531319;28;20476;-60
2022/02/24 11:26:49;;;;;;;11.02;6.15;;;;;;;;;;10532370;28;20032;-60
2022/02/24 11:32:06;;;;;;;7.88;5.30;;;;;;;;;;10531677;28;20453;-61
2022/02/24 11:37:23;;;;;;;9.90;5.60;;;;;;;;;;10532111;28;20159;-60
2022/02/24 11:42:25;;;;;;;7.10;4.95;;;;;;;;;;10534335;28;20638;-60
2022/02/24 11:47:26;;;;;;;9.60;5.85;;;;;;;;;;10540191;28;20043;-60
2022/02/24 11:52:26;;;;;;;10.30;5.15;;;;;;;;;;10536629;28;20028;-60
2022/02/24 11:57:33;;;;;;;13.53;4.93;;;;;;;;;;10538926;28;20399;-60
2022/02/24 12:02:44;;;;;;;6.63;4.88;;;;;;;;;;10537695;28;20044;-60
2022/02/24 12:08:03;;;;;;;8.07;5.05;;;;;;;;;;10537983;28;20089;-60
2022/02/24 12:13:23;;;;;;;8.50;4.82;;;;;;;;;;10535675;28;20108;-60
2022/02/24 12:18:36;;;;;;;7.70;4.70;;;;;;;;;;10536610;28;20099;-60
2022/02/24 12:23:36;;;;;;;7.13;4.97;;;;;;;;;;10535646;28;20020;-60
2022/02/24 12:28:36;;;;;;;6.15;4.57;;;;;;;;;;10534211;28;20024;-62
2022/02/24 12:33:37;;;;;;;7.78;4.70;;;;;;;;;;10536711;28;20162;-60
2022/02/24 12:38:37;;;;;;;9.63;5.27;;;;;;;;;;10535225;28;20020;-61
2022/02/24 12:43:42;;;;;;;8.97;5.20;;;;;;;;;;10535392;28;20032;-66
2022/02/24 12:48:42;;;;;;;8.18;4.63;;;;;;;;;;10535570;28;20445;-60
2022/02/24 12:53:44;;;;;;;8.30;4.77;;;;;;;;;;10530466;28;20383;-60
2022/02/24 12:58:48;;;;;;;7.93;4.45;;;;;;;;;;10554761;22;20052;-61
2022/02/24 13:03:51;;;;;;;7.88;4.93;;;;;;;;;;10540309;28;20103;-61
2022/02/24 13:14:19;;;;;;;8.43;4.22;;;;;;;;;;10533962;28;20024;-61
2022/02/24 13:19:20;;;;;;;13.23;4.60;;;;;;;;;;10535179;28;20028;-60
2022/02/24 13:24:25;;;;;;;10.38;4.85;;;;;;;;;;10534524;28;20040;-62
2022/02/24 13:29:25;;;;;;;7.53;4.60;;;;;;;;;;10534223;28;20043;-63
2022/02/24 13:34:31;;;;;;;5.97;4.13;;;;;;;;;;10534998;28;20047;-62
2022/02/24 13:39:33;;;;;;;5.05;4.40;;;;;;;;;;10530637;28;20114;-61
2022/02/24 13:44:38;;;;;;;6.68;4.00;;;;;;;;;;10533080;28;20031;-60
2022/02/24 13:49:43;;;;;;;6.53;4.93;;;;;;;;;;10533843;28;20074;-61
2022/02/24 13:54:53;;;;;;;6.45;3.78;;;;;;;;;;10533187;28;20062;-61
2022/02/24 14:00:10;;;;;;;8.73;4.28;;;;;;;;;;10530085;28;20473;-60
2022/02/24 14:05:16;;;;;;;7.22;4.20;;;;;;;;;;10531286;28;20117;-60
2022/02/24 14:10:18;;;;;;;6.90;3.78;;;;;;;;;;10529584;28;20048;-60
2022/02/24 14:15:19;;;;;;;6.57;4.20;;;;;;;;;;10532725;28;20024;-62
2022/02/24 14:20:24;;;;;;;5.97;4.45;;;;;;;;;;10533556;28;20035;-60
2022/02/24 14:25:25;;;;;;;7.95;3.85;;;;;;;;;;10532592;28;20027;-61
2022/02/24 14:30:25;;;;;;;6.35;3.88;;;;;;;;;;10532410;28;20022;-62
2022/02/24 14:35:26;;;;;;;7.25;4.38;;;;;;;;;;10531123;28;20028;-60
2022/02/24 14:40:26;;;;;;;17.30;4.20;;;;;;;;;;10531656;28;20025;-63
2022/02/24 14:45:27;;;;;;;81.88;7.38;;;;;;;;;;10532533;28;20028;-50
2022/02/24 14:50:28;;;;;;;37.28;5.55;;;;;;;;;;10532245;28;20060;-54
2022/02/24 14:55:28;;;;;;;16.52;4.63;;;;;;;;;;10531735;28;20075;-65
2022/02/24 15:00:30;;;;;;;22.63;4.50;;;;;;;;;;10532119;28;20227;-55
2022/02/24 15:05:32;;;;;;;21.63;5.25;;;;;;;;;;10532551;28;20036;-53
2022/02/24 15:10:32;;;;;;;23.40;4.57;;;;;;;;;;10528868;28;20016;-57
2022/02/24 15:15:35;;;;;;;17.67;4.33;;;;;;;;;;10530353;28;20028;-56
2022/02/24 15:20:39;;;;;;;15.75;4.00;;;;;;;;;;10540233;28;20441;-56
2022/02/24 15:25:39;;;;;;;13.82;4.32;;;;;;;;;;10539091;28;20464;-52
2022/02/24 15:30:40;;;;;;;10.47;3.83;;;;;;;;;;10538358;28;20020;-51
2022/02/24 15:35:40;;;;;;;10.23;3.67;;;;;;;;;;10539533;28;20501;-54
2022/02/24 15:40:40;;;;;;;5.00;3.20;;;;;;;;;;10539425;28;20024;-60
2022/02/24 15:45:41;;;;;;;10.10;4.13;;;;;;;;;;10539491;28;20111;-55
2022/02/24 15:50:43;;;;;;;22.67;4.13;;;;;;;;;;10539411;28;20860;-55
2022/02/24 15:55:44;;;;;;;9.05;3.70;;;;;;;;;;10539261;28;20445;-55
2022/02/24 16:00:44;;;;;;;6.93;3.35;;;;;;;;;;10538247;28;20036;-54
2022/02/24 16:05:44;;;;;;;6.22;3.72;;;;;;;;;;10538858;28;20468;-54
2022/02/24 16:10:45;;;;;;;9.93;3.65;;;;;;;;;;10537336;28;20050;-52
2022/02/24 16:15:45;;;;;;;7.37;3.57;;;;;;;;;;10533205;28;20031;-54
2022/02/24 16:20:46;;;;;;;6.17;3.20;;;;;;;;;;10533461;28;20399;-54
2022/02/24 16:25:47;;;;;;;8.88;3.25;;;;;;;;;;10535753;28;20036;-58
2022/02/24 16:30:48;;;;;;;10.77;3.15;;;;;;;;;;10535445;28;20035;-55
2022/02/24 16:35:49;;;;;;;8.77;3.53;;;;;;;;;;10536341;28;20051;-55
2022/02/24 16:40:50;;;;;;;16.15;4.30;;;;;;;;;;10535290;28;20116;-52
2022/02/24 16:45:50;;;;;;;7.20;3.83;;;;;;;;;;10536198;28;20117;-56
2022/02/24 16:50:50;;;;;;;7.70;3.80;;;;;;;;;;10536456;28;20497;-56
2022/02/24 16:55:53;;;;;;;10.33;4.23;;;;;;;;;;10536156;28;20448;-58
2022/02/24 17:00:53;;;;;;;7.80;3.65;;;;;;;;;;10535306;28;20461;-55
2022/02/24 17:05:54;;;;;;;9.60;4.00;;;;;;;;;;10535049;28;20031;-57
2022/02/24 17:10:54;;;;;;;6.13;3.20;;;;;;;;;;10534657;28;20695;-52
2022/02/24 17:15:55;;;;;;;5.97;3.42;;;;;;;;;;10535406;28;20352;-57
2022/02/24 17:20:57;;;;;;;4.75;3.33;;;;;;;;;;10532478;28;20441;-58
2022/02/24 17:25:58;;;;;;;7.05;4.07;;;;;;;;;;10534420;28;20040;-57
2022/02/24 17:30:58;;;;;;;5.72;3.30;;;;;;;;;;10531971;28;20024;-56
2022/02/24 17:36:00;;;;;;;10.03;4.03;;;;;;;;;;10534842;28;20081;-57
2022/02/24 17:41:02;;;;;;;7.82;3.78;;;;;;;;;;10532256;28;20048;-57
2022/02/24 17:46:04;;;;;;;11.38;3.80;;;;;;;;;;10533801;28;20480;-57
2022/02/24 17:51:04;;;;;;;5.43;3.08;;;;;;;;;;10535275;28;20099;-52
2022/02/24 17:56:05;;;;;;;6.00;3.20;;;;;;;;;;10534039;28;20111;-56
2022/02/24 18:01:05;;;;;;;6.40;3.60;;;;;;;;;;10533984;28;20449;-57
2022/02/24 18:06:06;;;;;;;7.27;3.70;;;;;;;;;;10533783;28;20979;-58
2022/02/24 18:11:07;;;;;;;9.30;3.42;;;;;;;;;;10533153;28;20437;-52
2022/02/24 18:16:10;;;;;;;6.88;3.55;;;;;;;;;;10533266;28;20437;-61
2022/02/24 18:21:10;;;;;;;15.30;3.83;;;;;;;;;;10533349;28;20030;-53
2022/02/24 18:26:11;;;;;;;5.77;3.70;;;;;;;;;;10531886;28;20036;-54
2022/02/24 18:31:14;;;;;;;9.90;3.70;;;;;;;;;;10530392;28;20445;-51
2022/02/24 18:36:14;;;;;;;7.75;3.20;;;;;;;;;;10532858;28;20472;-55
2022/02/24 18:41:15;;;;;;;13.95;3.95;;;;;;;;;;10529731;28;20024;-53
2022/02/24 18:46:15;;;;;;;13.97;3.73;;;;;;;;;;10532145;28;20445;-63
2022/02/24 18:51:16;;;;;;;11.10;4.25;;;;;;;;;;10536405;28;20437;-56
2022/02/24 18:56:18;;;;;;;9.47;4.23;;;;;;;;;;10542064;28;20054;-56
2022/02/24 19:01:18;;;;;;;12.20;4.18;;;;;;;;;;10541537;28;20455;-59
2022/02/24 19:06:19;;;;;;;8.13;4.57;;;;;;;;;;10541041;28;20051;-55
2022/02/24 19:11:22;;;;;;;8.82;4.20;;;;;;;;;;10540075;28;20025;-55
2022/02/24 19:16:22;;;;;;;10.70;3.67;;;;;;;;;;10540821;28;20077;-59
2022/02/24 19:21:23;;;;;;;6.80;4.00;;;;;;;;;;10539189;28;20020;-56
2022/02/24 19:26:23;;;;;;;15.05;5.10;;;;;;;;;;10540140;28;20905;-59
2022/02/24 19:31:25;;;;;;;18.33;5.03;;;;;;;;;;10539714;28;20036;-58
2022/02/24 19:36:27;;;;;;;16.67;5.20;;;;;;;;;;10539121;28;20489;-58
2022/02/24 19:41:28;;;;;;;17.52;4.72;;;;;;;;;;10535337;28;20024;-59
2022/02/24 19:46:29;;;;;;;16.23;4.22;;;;;;;;;;10538907;28;20039;-56
2022/02/24 19:51:29;;;;;;;9.63;4.85;;;;;;;;;;10536480;28;20071;-58
2022/02/24 19:56:30;;;;;;;10.52;5.00;;;;;;;;;;10537300;28;20052;-57
2022/02/24 20:01:31;;;;;;;13.95;4.72;;;;;;;;;;10538731;28;20048;-58
2022/02/24 20:06:31;;;;;;;9.88;4.60;;;;;;;;;;10538281;28;20168;-57
2022/02/24 20:11:32;;;;;;;12.20;5.07;;;;;;;;;;10537837;28;20127;-61
2022/02/24 20:16:32;;;;;;;9.27;4.90;;;;;;;;;;10538311;28;20079;-60
2022/02/24 20:21:32;;;;;;;9.87;4.20;;;;;;;;;;10536486;28;20464;-60
2022/02/24 20:26:37;;;;;;;7.57;3.90;;;;;;;;;;10536470;28;20032;-60
2022/02/24 20:31:37;;;;;;;9.60;5.13;;;;;;;;;;10536829;28;20971;-60
2022/02/24 20:36:38;;;;;;;8.32;4.60;;;;;;;;;;10535813;28;20030;-60
2022/02/24 20:41:43;;;;;;;7.73;3.90;;;;;;;;;;10537320;28;20069;-62
2022/02/24 20:46:44;;;;;;;10.35;4.47;;;;;;;;;;10536644;28;20035;-60
2022/02/24 20:51:44;;;;;;;9.07;4.10;;;;;;;;;;10532084;28;20023;-60
2022/02/24 20:56:45;;;;;;;6.37;3.50;;;;;;;;;;10531745;28;20044;-61
2022/02/24 21:01:45;;;;;;;11.20;3.78;;;;;;;;;;10533914;28;20106;-60
2022/02/24 21:06:45;;;;;;;10.00;3.90;;;;;;;;;;10534246;28;20031;-61
2022/02/24 21:11:46;;;;;;;8.47;3.70;;;;;;;;;;10535677;28;20024;-60
2022/02/24 21:16:46;;;;;;;7.67;3.63;;;;;;;;;;10534887;28;20525;-61
2022/02/24 21:21:47;;;;;;;9.93;3.97;;;;;;;;;;10534752;28;20035;-60
2022/02/24 21:26:47;;;;;;;7.82;3.83;;;;;;;;;;10534386;28;21056;-58
2022/02/24 21:31:47;;;;;;;5.47;3.67;;;;;;;;;;10534250;28;20084;-58
2022/02/24 21:36:48;;;;;;;10.43;4.60;;;;;;;;;;10534416;28;20444;-57
2022/02/24 21:41:49;;;;;;;10.98;5.25;;;;;;;;;;10534493;28;20444;-54
2022/02/24 21:46:49;;;;;;;13.68;5.55;;;;;;;;;;10533770;28;20178;-61
2022/02/24 21:51:50;;;;;;;15.70;5.35;;;;;;;;;;10534141;28;20024;-60
2022/02/24 21:56:50;;;;;;;16.08;5.28;;;;;;;;;;10529109;28;20074;-62
2022/02/24 22:01:50;;;;;;;11.13;5.27;;;;;;;;;;10530480;28;20027;-60
2022/02/24 22:06:51;;;;;;;17.50;5.03;;;;;;;;;;10532454;28;20125;-66
2022/02/24 22:11:51;;;;;;;15.70;5.43;;;;;;;;;;10532364;28;20039;-58
2022/02/24 22:16:52;;;;;;;12.70;5.07;;;;;;;;;;10532939;28;20031;-60
2022/02/24 22:21:52;;;;;;;20.00;5.18;;;;;;;;;;10531388;28;20115;-60
2022/02/24 22:26:52;;;;;;;22.43;7.00;;;;;;;;;;10532083;28;20035;-58
2022/02/24 22:31:53;;;;;;;23.17;6.87;;;;;;;;;;10531687;28;20461;-60
2022/02/24 22:36:54;;;;;;;20.97;6.57;;;;;;;;;;10531216;28;20392;-60
2022/02/24 22:41:54;;;;;;;20.40;6.50;;;;;;;;;;10531030;28;20467;-59
2022/02/24 22:46:55;;;;;;;22.50;6.17;;;;;;;;;;10531457;28;20028;-59
2022/02/24 22:51:55;;;;;;;19.27;6.23;;;;;;;;;;10531451;28;20028;-59
2022/02/24 22:56:56;;;;;;;26.60;6.83;;;;;;;;;;10532037;28;20040;-61
2022/02/24 23:01:57;;;;;;;26.73;6.68;;;;;;;;;;10529886;28;20036;-59
2022/02/24 23:06:58;;;;;;;20.50;6.10;;;;;;;;;;10529309;28;20222;-62
2022/02/24 23:11:58;;;;;;;14.90;6.43;;;;;;;;;;10532182;28;20024;-59
2022/02/24 23:16:59;;;;;;;20.17;6.50;;;;;;;;;;10532794;28;20115;-60
2022/02/24 23:21:59;;;;;;;21.50;5.83;;;;;;;;;;10530570;28;20371;-59
2022/02/24 23:26:59;;;;;;;23.50;5.82;;;;;;;;;;10530688;28;20461;-60
2022/02/24 23:32:00;;;;;;;23.93;6.50;;;;;;;;;;10530489;28;20479;-59
2022/02/24 23:37:00;;;;;;;17.83;6.23;;;;;;;;;;10532087;28;20024;-59
2022/02/24 23:42:01;;;;;;;18.63;6.47;;;;;;;;;;10538595;28;20429;-59
2022/02/24 23:47:01;;;;;;;16.93;5.53;;;;;;;;;;10538433;28;20107;-60
2022/02/24 23:52:01;;;;;;;12.55;5.60;;;;;;;;;;10537194;28;20039;-57
2022/02/24 23:57:02;;;;;;;11.80;5.35;;;;;;;;;;10538286;28;20055;-58
